Buchungs- & Info-Hotline 08062/90 67 50 Mo. - Fr. von 8-18 Uhr | Sa. von 9-13 Uhr

ReiseFINDER

 
 

BERR-Kataloge

Blätterkataloge und Katalogbestellung

Blätterkataloge

Reiseversicherung

Ihr persönliche Reiseschutz für Ihre Berr-Reise

Reiseversicherung

BERR-Kalender

Das ganze Jahr unterwegs!

März 2019

Titel der Reise von bis Dauer Preis
Karneval in Venedig 01.03.19 01.03.19 1 Tag ab 49,90 €
Skitagesfahrt Wipptal 01.03.19 01.03.19 1 Tag ab 39,00 €
Skiwochenende Wipptal 01.03.19 03.03.19 3 Tage ab 219,00 €
Nürnberg 02.03.19 02.03.19 1 Tag ab 26,00 €
Vaduz 02.03.19 02.03.19 1 Tag ab 29,00 €
Karneval in Venedig 02.03.19 02.03.19 1 Tag ab 49,90 €
Bad Birnbach 02.03.19 02.03.19 1 Tag ab 15,50 €
Bad Füssing 02.03.19 02.03.19 1 Tag ab 16,50 €
Bad Griesbach 02.03.19 02.03.19 1 Tag ab 15,50 €
Skitagesfahrt Ellmau INKLUSIVE Skipass 02.03.19 02.03.19 1 Tag ab 54,00 €
Bergwandern Ellmau 02.03.19 02.03.19 1 Tag ab 37,00 €
Skitagesfahrt Wipptal 02.03.19 02.03.19 1 Tag ab 39,00 €
Skiwochenende Wipptal 02.03.19 03.03.19 2 Tage ab 149,00 €
Karneval in Venedig 02.03.19 04.03.19 3 Tage ab 235,00 €
Karneval in Rijeka 02.03.19 04.03.19 3 Tage ab 229,00 €
Altötting 03.03.19 03.03.19 1 Tag ab 15,50 €
Gut Aiderbichl - nachmittags Salzburg 03.03.19 03.03.19 1 Tag ab 25,00 €
Karneval in Venedig 03.03.19 03.03.19 1 Tag ab 49,90 €
Bad Birnbach 03.03.19 03.03.19 1 Tag ab 15,50 €
Bad Füssing 03.03.19 03.03.19 1 Tag ab 16,50 €
Bad Griesbach 03.03.19 03.03.19 1 Tag ab 15,50 €
Fahrt ins "Weiße" 03.03.19 03.03.19 1 Tag ab 13,50 €
Skitagesfahrt Ellmau INKLUSIVE Skipass 03.03.19 03.03.19 1 Tag ab 54,00 €
Skitagesfahrt Wipptal 03.03.19 03.03.19 1 Tag ab 39,00 €
Die fabelhafte Welt der Amélie Märztermin 03.03.19 03.03.19 1 Tag ab 65,00 €
Heidelberg 04.03.19 04.03.19 1 Tag ab 36,90 €
Karneval in Venedig 04.03.19 04.03.19 1 Tag ab 49,90 €
Meeresbrise auf Usedom 04.03.19 08.03.19 5 Tage ab 399,00 €
Frühlingsspecial Sizilien 04.03.19 10.03.19 7 Tage ab 629,00 €
Betz Modewerke 05.03.19 05.03.19 1 Tag ab 29,00 €
Karneval in Venedig 05.03.19 05.03.19 1 Tag ab 49,90 €
Bad Birnbach 05.03.19 05.03.19 1 Tag ab 15,50 €
Bad Füssing 05.03.19 05.03.19 1 Tag ab 16,50 €
Bad Griesbach 05.03.19 05.03.19 1 Tag ab 15,50 €
Traditioneller Fasching im Salzkammergut 05.03.19 06.03.19 2 Tage ab 189,00 €
St. Gallen 06.03.19 06.03.19 1 Tag ab 28,00 €
Zürich 06.03.19 06.03.19 1 Tag ab 29,90 €
Skitagesfahrt Ellmau INKLUSIVE Skipass 06.03.19 06.03.19 1 Tag ab 54,00 €
Skitagesfahrt Ellmau - Lady Day 06.03.19 06.03.19 1 Tag ab 44,00 €
München 07.03.19 07.03.19 1 Tag ab 8,50 €
Therme Bad Aibling 07.03.19 07.03.19 1 Tag ab 8,50 €
Rosenheim 07.03.19 07.03.19 1 Tag ab 8,50 €
Bad Birnbach 07.03.19 07.03.19 1 Tag ab 15,50 €
Bad Füssing 07.03.19 07.03.19 1 Tag ab 16,50 €
Bad Griesbach 07.03.19 07.03.19 1 Tag ab 15,50 €
Zu Gast in Bologna 07.03.19 10.03.19 4 Tage ab 389,00 €
Schloss Faber-Castell mit Nürnberg 08.03.19 08.03.19 1 Tag ab 32,00 €
Skitagesfahrt Wipptal 08.03.19 08.03.19 1 Tag ab 39,00 €
Skiwochenende Wipptal 08.03.19 10.03.19 3 Tage ab 219,00 €
Saisoneröffnungsfahrt 2019: Bella Italia an der Adria 08.03.19 11.03.19 4 Tage ab 299,00 €
Berchtesgaden 09.03.19 09.03.19 1 Tag ab 22,00 €
Königssee 09.03.19 09.03.19 1 Tag ab 23,00 €
Hallstatt und Bad Ischl 09.03.19 09.03.19 1 Tag ab 29,00 €
Prag 09.03.19 09.03.19 1 Tag ab 29,90 €
Rupertus Therme Bad Reichenhall 09.03.19 09.03.19 1 Tag ab 24,00 €
Bad Birnbach 09.03.19 09.03.19 1 Tag ab 15,50 €
Bad Füssing 09.03.19 09.03.19 1 Tag ab 16,50 €
Bad Griesbach 09.03.19 09.03.19 1 Tag ab 15,50 €
Skitagesfahrt Ellmau INKLUSIVE Skipass 09.03.19 09.03.19 1 Tag ab 54,00 €
Bergwandern Ellmau 09.03.19 09.03.19 1 Tag ab 37,00 €
Skitagesfahrt Wipptal 09.03.19 09.03.19 1 Tag ab 39,00 €
"Die kleine Hexe" 09.03.19 09.03.19 1 Tag ab 29,90 €
Skiwochenende Wipptal 09.03.19 10.03.19 2 Tage ab 149,00 €
Bad Birnbach 10.03.19 10.03.19 1 Tag ab 15,50 €
Bad Füssing 10.03.19 10.03.19 1 Tag ab 16,50 €
Bad Griesbach 10.03.19 10.03.19 1 Tag ab 15,50 €
Skitagesfahrt Ellmau INKLUSIVE Skipass 10.03.19 10.03.19 1 Tag ab 54,00 €
Skitagesfahrt Wipptal 10.03.19 10.03.19 1 Tag ab 39,00 €
Alpin- und Langlauftage in Bad Hofgastein 10.03.19 14.03.19 5 Tage ab 365,00 €
Abano – Thermeschnuppern im Herbst und Frühling 10.03.19 14.03.19 5 Tage ab 379,00 €
Abano – Thermeschnuppern im Herbst oder Frühling 10.03.19 17.03.19 8 Tage ab 619,00 €
Stuttgart 12.03.19 12.03.19 1 Tag ab 22,50 €
Zoo Wilhelma Stuttgart 12.03.19 12.03.19 1 Tag ab 22,50 €
Bad Birnbach 12.03.19 12.03.19 1 Tag ab 15,50 €
Bad Füssing 12.03.19 12.03.19 1 Tag ab 16,50 €
Bad Griesbach 12.03.19 12.03.19 1 Tag ab 15,50 €
Musikreise Prag 12.03.19 14.03.19 3 Tage ab 355,00 €
Brixen 13.03.19 13.03.19 1 Tag ab 29,00 €
Sterzing 13.03.19 13.03.19 1 Tag ab 30,00 €
Skitagesfahrt Ellmau INKLUSIVE Skipass 13.03.19 13.03.19 1 Tag ab 54,00 €
Skitagesfahrt Ellmau - Lady Day 13.03.19 13.03.19 1 Tag ab 44,00 €
Abano – Thermeschnuppern im Herbst und Frühling 13.03.19 17.03.19 5 Tage ab 379,00 €
Radreise Vietnam - Zwischen mystischen Tempeln und geheimnisvollen Buchten! 13.03.19 31.03.19 19 Tage ab 3390,00 €
München 14.03.19 14.03.19 1 Tag ab 8,50 €
Therme Bad Aibling 14.03.19 14.03.19 1 Tag ab 8,50 €
Bad Birnbach 14.03.19 14.03.19 1 Tag ab 15,50 €
Bad Füssing 14.03.19 14.03.19 1 Tag ab 16,50 €
Bad Griesbach 14.03.19 14.03.19 1 Tag ab 15,50 €
Budapest - Schnäppchenreise 14.03.19 17.03.19 4 Tage ab 219,00 €
Starlight Express Bochum 15.03.19 16.03.19 2 Tage ab 249,00 €
Wellness im EurothermenResort in Bad Ischl 15.03.19 17.03.19 3 Tage ab 329,00 €
Venedig ohne Touristen 15.03.19 17.03.19 3 Tage ab 279,00 €
Prag - Ein Traum an der Moldau 15.03.19 18.03.19 4 Tage ab 269,00 €
Bamberg mit Stadtführung 16.03.19 16.03.19 1 Tag ab 29,90 €
Tagesfahrt Wien 16.03.19 16.03.19 1 Tag ab 35,00 €
Bad Birnbach 16.03.19 16.03.19 1 Tag ab 15,50 €
Bad Füssing 16.03.19 16.03.19 1 Tag ab 16,50 €
Bad Griesbach 16.03.19 16.03.19 1 Tag ab 15,50 €
Skitagesfahrt Ellmau INKLUSIVE Skipass 16.03.19 16.03.19 1 Tag ab 49,90 €
Bergwandern Ellmau 16.03.19 16.03.19 1 Tag ab 37,00 €